Time;durP1;ratioP1;P1;durP2;ratioP2;P2;SDS_P1;SDS_P2;PMS_P1;PMS_P2;Temp;Humidity;BMP_temperature;BMP_pressure;BME280_temperature;BME280_humidity;BME280_pressure;Samples;Min_cycle;Max_cycle;Signal;HPM_P1;HPM_P2
2021/05/10 00:00:24;;;;;;;6.37;3.60;;;13.40;99.90;;;;;;5119279;27;20625;-67
2021/05/10 00:02:50;;;;;;;7.07;4.10;;;13.30;99.90;;;;;;5119109;27;20648;-65
2021/05/10 00:05:15;;;;;;;4.50;3.80;;;13.10;99.90;;;;;;5137478;27;20167;-66
2021/05/10 00:07:42;;;;;;;7.20;5.30;;;13.20;99.90;;;;;;5137374;27;20191;-66
2021/05/10 00:10:10;;;;;;;4.80;3.60;;;13.20;99.90;;;;;;5118905;27;20181;-67
2021/05/10 00:12:36;;;;;;;5.53;3.87;;;13.10;99.90;;;;;;5137801;27;20431;-67
2021/05/10 00:15:02;;;;;;;5.30;4.37;;;13.00;99.90;;;;;;5136697;27;20411;-68
2021/05/10 00:17:27;;;;;;;4.67;4.27;;;13.00;99.90;;;;;;5137759;27;20187;-66
2021/05/10 00:19:53;;;;;;;3.40;3.10;;;13.00;99.90;;;;;;5137323;27;20949;-67
2021/05/10 00:22:18;;;;;;;4.40;3.37;;;13.00;99.90;;;;;;5137747;27;20183;-66
2021/05/10 00:24:44;;;;;;;3.27;2.90;;;12.90;99.90;;;;;;5137184;27;20171;-67
2021/05/10 00:27:09;;;;;;;3.93;3.50;;;12.90;99.90;;;;;;5118790;27;20187;-67
2021/05/10 00:29:35;;;;;;;3.47;3.17;;;12.90;99.90;;;;;;5114950;28;20231;-66
2021/05/10 00:32:01;;;;;;;4.47;3.50;;;12.90;99.90;;;;;;5116787;28;20216;-66
2021/05/10 00:34:26;;;;;;;3.87;3.50;;;12.90;99.90;;;;;;5116478;28;20187;-68
2021/05/10 00:36:52;;;;;;;4.10;3.70;;;12.80;99.90;;;;;;5116733;27;20191;-67
2021/05/10 00:39:18;;;;;;;3.73;3.43;;;12.70;99.90;;;;;;5116325;28;20195;-67
2021/05/10 00:41:44;;;;;;;7.73;4.00;;;12.70;99.90;;;;;;5116586;28;20588;-67
2021/05/10 00:44:10;;;;;;;7.60;4.00;;;12.60;99.90;;;;;;5115513;28;20435;-68
2021/05/10 00:46:37;;;;;;;4.50;3.60;;;12.60;99.90;;;;;;5114939;28;20184;-68
2021/05/10 00:49:04;;;;;;;6.00;3.97;;;12.60;99.90;;;;;;5114755;28;20475;-68
2021/05/10 00:51:30;;;;;;;5.03;4.00;;;12.50;99.90;;;;;;5114627;28;20479;-66
2021/05/10 00:53:55;;;;;;;4.40;4.00;;;12.50;99.90;;;;;;5115967;28;20431;-67
2021/05/10 00:56:21;;;;;;;6.17;4.00;;;12.50;99.90;;;;;;5116260;28;20214;-67
2021/05/10 00:58:47;;;;;;;5.73;4.17;;;12.50;99.90;;;;;;5114590;28;20580;-67
2021/05/10 01:01:13;;;;;;;4.13;3.80;;;12.40;99.90;;;;;;5116149;28;20176;-67
2021/05/10 01:03:40;;;;;;;3.97;3.37;;;12.40;99.90;;;;;;5115816;28;20248;-67
2021/05/10 01:06:05;;;;;;;6.73;3.70;;;12.40;99.90;;;;;;5114629;28;20546;-67
2021/05/10 01:08:31;;;;;;;5.77;3.90;;;12.40;99.90;;;;;;5115757;28;20449;-66
2021/05/10 01:10:56;;;;;;;3.70;3.40;;;12.40;99.90;;;;;;5114338;28;20282;-66
2021/05/10 01:13:23;;;;;;;4.03;3.23;;;12.30;99.90;;;;;;5115576;28;20212;-66
2021/05/10 01:15:51;;;;;;;8.93;4.30;;;12.30;99.90;;;;;;5115684;28;20640;-66
2021/05/10 01:18:20;;;;;;;5.70;3.87;;;12.20;99.90;;;;;;5115628;28;20416;-66
2021/05/10 01:20:50;;;;;;;4.10;3.80;;;12.20;99.90;;;;;;5115597;28;20913;-67
2021/05/10 01:23:17;;;;;;;5.15;3.72;;;12.20;99.90;;;;;;5115492;28;20506;-66
2021/05/10 01:25:42;;;;;;;4.07;3.63;;;12.10;99.90;;;;;;5114149;28;20187;-66
2021/05/10 01:28:08;;;;;;;4.33;3.90;;;12.00;99.90;;;;;;5115415;28;20420;-67
2021/05/10 01:30:48;;;;;;;4.07;3.70;;;12.00;99.90;;;;;;5131658;27;20235;-68
2021/05/10 01:33:13;;;;;;;4.60;3.40;;;12.00;99.90;;;;;;5135850;27;20904;-66
2021/05/10 01:35:45;;;;;;;4.47;4.00;;;12.00;99.90;;;;;;5117407;27;20198;-66
2021/05/10 01:38:11;;;;;;;4.47;4.00;;;12.00;99.90;;;;;;5135762;27;20211;-68
2021/05/10 01:40:36;;;;;;;4.83;3.60;;;12.00;99.90;;;;;;5135736;27;20457;-68
2021/05/10 01:43:03;;;;;;;5.37;4.47;;;11.90;99.90;;;;;;5135562;27;20511;-67
2021/05/10 01:45:28;;;;;;;4.15;3.80;;;11.80;99.90;;;;;;5135507;27;20163;-66
2021/05/10 01:48:03;;;;;;;4.57;4.17;;;11.80;99.90;;;;;;5135519;27;20239;-67
2021/05/10 01:50:29;;;;;;;5.13;4.03;;;11.70;99.90;;;;;;5135453;27;20265;-67
2021/05/10 01:52:54;;;;;;;4.80;4.00;;;11.70;99.90;;;;;;5116946;27;20436;-66
2021/05/10 01:55:25;;;;;;;4.50;4.07;;;11.70;99.90;;;;;;5135362;27;20403;-67
2021/05/10 01:57:54;;;;;;;4.55;4.10;;;11.70;99.90;;;;;;5135253;27;20238;-66
2021/05/10 02:00:23;;;;;;;4.55;3.70;;;11.80;99.90;;;;;;5135341;27;20253;-67
2021/05/10 02:02:51;;;;;;;7.07;3.93;;;11.70;99.90;;;;;;5135152;27;20195;-66
2021/05/10 02:05:21;;;;;;;4.30;3.90;;;11.70;99.90;;;;;;5135238;27;20403;-66
2021/05/10 02:07:52;;;;;;;5.47;4.90;;;11.80;99.90;;;;;;5135160;27;20183;-67
2021/05/10 02:10:25;;;;;;;5.43;4.07;;;11.70;99.90;;;;;;5135132;27;20199;-66
2021/05/10 02:12:59;;;;;;;4.78;4.35;;;11.70;99.90;;;;;;5135086;27;20534;-67
2021/05/10 02:15:28;;;;;;;4.38;3.97;;;11.70;99.90;;;;;;5135304;27;20577;-66
2021/05/10 02:17:53;;;;;;;4.35;3.92;;;11.70;99.90;;;;;;5116453;28;20195;-67
2021/05/10 02:20:21;;;;;;;4.50;4.10;;;11.70;99.90;;;;;;5134969;27;20259;-68
2021/05/10 02:22:51;;;;;;;7.60;4.57;;;11.70;99.90;;;;;;5134815;27;20434;-68
2021/05/10 02:25:22;;;;;;;4.63;4.23;;;11.70;99.90;;;;;;5134912;27;20395;-66
2021/05/10 02:27:49;;;;;;;6.05;4.68;;;11.70;99.90;;;;;;5134790;27;20419;-67
2021/05/10 02:30:15;;;;;;;4.70;4.15;;;11.70;99.90;;;;;;5134643;27;20222;-68
2021/05/10 02:32:42;;;;;;;4.70;4.05;;;11.70;99.90;;;;;;5134689;27;20209;-66
2021/05/10 02:35:08;;;;;;;4.70;4.20;;;11.70;99.90;;;;;;5116512;28;20547;-67
2021/05/10 02:37:34;;;;;;;4.50;4.10;;;11.70;99.90;;;;;;5134101;27;20684;-67
2021/05/10 02:39:59;;;;;;;4.17;3.77;;;11.70;99.90;;;;;;5134663;27;20171;-68
2021/05/10 02:42:25;;;;;;;4.90;4.20;;;11.70;99.90;;;;;;5116491;28;20533;-67
2021/05/10 02:44:50;;;;;;;3.97;3.57;;;11.70;99.90;;;;;;5116368;28;20174;-66
2021/05/10 02:47:17;;;;;;;5.63;4.80;;;11.70;99.90;;;;;;5135073;28;20733;-66
2021/05/10 02:49:42;;;;;;;6.85;4.03;;;11.70;99.90;;;;;;5134654;28;20175;-68
2021/05/10 02:52:08;;;;;;;4.57;3.80;;;11.70;99.90;;;;;;5134910;28;20706;-65
2021/05/10 02:54:34;;;;;;;5.37;4.70;;;11.70;99.90;;;;;;5116077;28;20706;-68
2021/05/10 02:56:59;;;;;;;5.70;4.10;;;11.70;99.90;;;;;;5134857;27;20177;-66
2021/05/10 02:59:25;;;;;;;5.07;4.07;;;11.70;99.90;;;;;;5116194;28;20207;-66
2021/05/10 03:01:50;;;;;;;3.60;3.30;;;11.60;99.90;;;;;;5134056;28;20246;-68
2021/05/10 03:04:16;;;;;;;3.73;3.40;;;11.80;99.90;;;;;;5134472;28;20194;-66
2021/05/10 03:06:41;;;;;;;4.83;4.33;;;11.70;99.90;;;;;;5134760;28;20620;-68
2021/05/10 03:09:07;;;;;;;4.50;4.10;;;11.70;99.90;;;;;;5134491;28;20198;-68
2021/05/10 03:11:32;;;;;;;4.23;3.83;;;11.70;99.90;;;;;;5116110;28;20218;-68
2021/05/10 03:13:58;;;;;;;6.70;3.80;;;11.70;99.90;;;;;;5134328;28;20199;-68
2021/05/10 03:16:23;;;;;;;4.13;3.60;;;12.00;99.90;;;;;;5116097;28;20181;-66
2021/05/10 03:18:49;;;;;;;4.77;3.87;;;11.80;99.90;;;;;;5134280;28;20225;-67
2021/05/10 03:21:15;;;;;;;5.30;4.17;;;11.70;99.90;;;;;;5116054;28;20652;-67
2021/05/10 03:23:40;;;;;;;4.87;3.70;;;11.60;99.90;;;;;;5115874;28;20242;-66
2021/05/10 03:26:06;;;;;;;4.60;4.10;;;11.60;99.90;;;;;;5134489;28;20171;-67
2021/05/10 03:28:31;;;;;;;4.80;4.23;;;11.60;99.90;;;;;;5134284;28;20665;-66
2021/05/10 03:30:57;;;;;;;5.60;3.87;;;11.70;99.90;;;;;;5133947;28;20705;-66
2021/05/10 03:33:22;;;;;;;4.60;4.10;;;11.70;99.90;;;;;;5134186;28;20191;-67
2021/05/10 03:35:48;;;;;;;5.70;4.50;;;11.70;99.90;;;;;;5115753;28;20270;-67
2021/05/10 03:38:14;;;;;;;4.07;3.67;;;11.70;99.90;;;;;;5115117;28;20187;-67
2021/05/10 03:40:39;;;;;;;5.23;4.13;;;11.60;99.90;;;;;;5134265;28;20258;-66
2021/05/10 03:43:05;;;;;;;5.20;4.70;;;11.60;99.90;;;;;;5134120;27;20243;-66
2021/05/10 03:45:31;;;;;;;4.00;3.70;;;11.60;99.90;;;;;;5134123;28;20174;-66
2021/05/10 03:47:56;;;;;;;5.10;3.90;;;11.70;99.90;;;;;;5133995;28;20198;-66
2021/05/10 03:50:22;;;;;;;5.13;3.90;;;11.60;99.90;;;;;;5135757;27;20206;-67
2021/05/10 03:52:50;;;;;;;4.60;4.20;;;11.60;99.90;;;;;;5137799;27;20191;-66
2021/05/10 03:55:19;;;;;;;4.32;3.90;;;11.70;99.90;;;;;;5137665;27;20519;-66
2021/05/10 03:57:45;;;;;;;5.80;3.70;;;11.70;99.90;;;;;;5136864;27;20199;-66
2021/05/10 04:00:13;;;;;;;5.63;4.10;;;11.60;99.90;;;;;;5136288;27;20678;-67
2021/05/10 04:02:39;;;;;;;5.85;3.80;;;11.70;99.90;;;;;;5116944;27;20447;-67
2021/05/10 04:15:17;;;;;;;5.00;3.97;;;12.10;99.90;;;;;;5136808;27;20846;-66
2021/05/10 04:17:43;;;;;;;4.10;3.70;;;12.10;99.90;;;;;;5133765;27;20276;-66
2021/05/10 04:20:09;;;;;;;5.37;3.80;;;12.30;99.90;;;;;;5136349;27;20275;-67
2021/05/10 04:22:35;;;;;;;3.70;3.30;;;12.30;99.90;;;;;;5136278;27;20218;-68
2021/05/10 04:25:01;;;;;;;5.50;3.43;;;12.40;99.90;;;;;;5117116;27;20563;-67
2021/05/10 04:27:27;;;;;;;4.20;3.80;;;12.70;99.90;;;;;;5135874;27;20187;-67
2021/05/10 04:29:53;;;;;;;3.65;3.35;;;12.70;99.90;;;;;;5135894;27;20226;-66
2021/05/10 04:32:18;;;;;;;5.63;3.60;;;12.80;99.90;;;;;;5137278;27;20230;-66
2021/05/10 04:34:47;;;;;;;4.27;3.87;;;12.80;99.90;;;;;;5136979;27;20403;-69
2021/05/10 04:37:13;;;;;;;8.07;3.88;;;12.80;99.90;;;;;;5134624;27;20175;-68
2021/05/10 04:39:38;;;;;;;3.67;3.37;;;13.00;99.90;;;;;;5135571;27;20198;-68
2021/05/10 04:42:04;;;;;;;5.47;3.20;;;13.00;99.90;;;;;;5136352;27;20191;-68
2021/05/10 04:44:30;;;;;;;5.43;4.80;;;13.00;99.90;;;;;;5136639;27;20203;-67
2021/05/10 04:46:55;;;;;;;5.90;3.43;;;13.00;99.90;;;;;;5136410;27;20175;-66
2021/05/10 04:49:21;;;;;;;3.83;3.53;;;13.10;99.90;;;;;;5130206;27;20210;-66
2021/05/10 04:51:46;;;;;;;3.40;3.10;;;13.20;99.90;;;;;;5131440;27;20219;-66
2021/05/10 04:54:12;;;;;;;3.93;3.63;;;13.20;99.90;;;;;;5134311;27;20202;-66
2021/05/10 04:56:37;;;;;;;3.40;3.13;;;13.50;99.90;;;;;;5130005;27;20271;-66
2021/05/10 04:59:03;;;;;;;5.00;3.57;;;13.50;99.90;;;;;;5115201;27;20199;-66
2021/05/10 05:01:29;;;;;;;6.47;3.50;;;13.60;99.90;;;;;;5132125;27;20187;-67
2021/05/10 05:03:54;;;;;;;3.83;3.43;;;13.70;99.90;;;;;;5135220;27;20683;-66
2021/05/10 05:06:20;;;;;;;3.77;3.37;;;13.60;99.90;;;;;;5114189;27;20188;-69
2021/05/10 05:08:46;;;;;;;3.27;2.97;;;13.70;99.90;;;;;;5131400;27;20634;-66
2021/05/10 05:11:11;;;;;;;3.97;3.30;;;13.90;99.90;;;;;;5134454;27;20225;-68
2021/05/10 05:13:37;;;;;;;4.60;3.60;;;14.10;99.90;;;;;;5112885;27;20206;-68
2021/05/10 05:16:02;;;;;;;3.77;3.37;;;14.10;99.90;;;;;;5133200;27;20198;-68
2021/05/10 05:18:28;;;;;;;4.60;3.57;;;14.20;99.90;;;;;;5135045;27;20199;-66
2021/05/10 05:20:54;;;;;;;3.73;3.20;;;14.40;99.90;;;;;;5134109;27;20240;-67
2021/05/10 05:23:21;;;;;;;3.47;3.27;;;14.60;99.90;;;;;;5135357;27;20203;-68
2021/05/10 05:25:47;;;;;;;5.80;3.80;;;14.50;99.90;;;;;;5131900;27;20445;-66
2021/05/10 05:28:13;;;;;;;5.33;2.80;;;14.80;99.90;;;;;;5113345;27;20969;-67
2021/05/10 05:30:38;;;;;;;3.37;3.10;;;14.70;99.90;;;;;;5129569;27;20475;-66
2021/05/10 05:33:05;;;;;;;5.03;3.13;;;14.70;99.90;;;;;;5133342;27;20197;-67
2021/05/10 05:35:30;;;;;;;6.00;3.07;;;14.60;99.90;;;;;;5129283;27;20179;-67
2021/05/10 05:37:56;;;;;;;3.90;2.97;;;14.70;99.90;;;;;;5114592;27;20439;-69
2021/05/10 05:40:21;;;;;;;5.10;3.50;;;14.90;99.90;;;;;;5129197;27;20214;-68
2021/05/10 05:42:47;;;;;;;4.00;3.40;;;15.20;99.90;;;;;;5131209;27;20291;-68
2021/05/10 05:45:13;;;;;;;3.40;3.10;;;15.30;99.90;;;;;;5112601;27;20179;-70
2021/05/10 05:47:39;;;;;;;5.40;3.57;;;15.40;99.90;;;;;;5131394;27;20214;-68
2021/05/10 05:50:05;;;;;;;3.40;3.10;;;15.30;99.90;;;;;;5130875;27;20407;-67
2021/05/10 05:52:30;;;;;;;2.77;2.57;;;15.40;99.90;;;;;;5130236;27;20728;-66
2021/05/10 05:54:56;;;;;;;3.77;3.47;;;15.60;99.90;;;;;;5112752;27;20518;-67
2021/05/10 05:57:22;;;;;;;4.50;3.83;;;15.50;99.90;;;;;;5133516;27;20179;-68
2021/05/10 05:59:48;;;;;;;3.73;3.40;;;15.40;99.90;;;;;;5130276;27;20411;-67
2021/05/10 06:02:13;;;;;;;3.93;3.40;;;15.30;99.90;;;;;;5131167;27;20232;-67
2021/05/10 06:04:39;;;;;;;5.50;4.27;;;15.40;99.90;;;;;;5131815;27;20179;-68
2021/05/10 06:07:04;;;;;;;5.77;3.37;;;15.70;99.90;;;;;;5115283;27;20179;-66
2021/05/10 06:09:30;;;;;;;5.20;4.27;;;15.80;99.90;;;;;;5133747;27;20238;-66
2021/05/10 06:11:56;;;;;;;5.33;3.23;;;16.00;99.90;;;;;;5132800;27;20601;-67
2021/05/10 06:14:22;;;;;;;4.37;3.90;;;16.00;99.90;;;;;;5126360;27;20243;-68
2021/05/10 06:16:47;;;;;;;3.27;2.97;;;15.90;99.90;;;;;;5125881;27;20270;-68
2021/05/10 06:19:13;;;;;;;7.83;3.47;;;15.80;99.90;;;;;;5117418;27;20734;-68
2021/05/10 06:21:40;;;;;;;5.40;3.17;;;15.90;99.90;;;;;;5102430;27;20178;-66
2021/05/10 06:24:06;;;;;;;5.30;3.43;;;16.00;99.90;;;;;;5115942;27;20446;-66
2021/05/10 06:26:32;;;;;;;3.40;3.10;;;16.20;99.90;;;;;;5102052;27;20437;-66
2021/05/10 06:28:57;;;;;;;7.90;4.43;;;16.50;99.90;;;;;;5116424;27;21271;-67
2021/05/10 06:31:23;;;;;;;4.17;3.23;;;16.30;99.90;;;;;;5101461;27;20656;-66
2021/05/10 06:33:49;;;;;;;3.53;2.97;;;16.30;99.90;;;;;;5117648;27;20743;-68
2021/05/10 06:36:15;;;;;;;4.77;3.50;;;16.40;99.90;;;;;;5120840;27;20521;-68
2021/05/10 06:38:41;;;;;;;5.63;3.10;;;16.20;99.90;;;;;;5113183;27;20219;-67
2021/05/10 06:41:06;;;;;;;3.80;2.63;;;16.40;99.90;;;;;;5113764;27;20181;-68
2021/05/10 06:43:32;;;;;;;3.93;2.80;;;16.50;99.90;;;;;;5116381;28;20207;-66
2021/05/10 06:45:58;;;;;;;3.47;3.17;;;16.60;99.90;;;;;;5121615;27;20240;-67
2021/05/10 06:48:32;;;;;;;3.07;2.73;;;16.70;99.90;;;;;;5085146;28;20442;-66
2021/05/10 06:50:59;;;;;;;3.70;2.67;;;16.70;99.90;;;;;;5120941;27;20599;-67
2021/05/10 06:53:24;;;;;;;2.70;2.50;;;16.90;99.90;;;;;;5117382;27;20847;-66
2021/05/10 06:55:51;;;;;;;6.67;2.60;;;17.00;99.90;;;;;;5117539;28;20431;-66
2021/05/10 06:58:17;;;;;;;3.23;2.93;;;17.20;99.90;;;;;;5114118;27;20234;-69
2021/05/10 07:00:43;;;;;;;6.37;2.87;;;17.20;99.90;;;;;;5124384;27;20785;-69
2021/05/10 07:03:09;;;;;;;5.20;2.33;;;17.30;99.90;;;;;;5100552;28;20446;-66
2021/05/10 07:05:34;;;;;;;3.73;2.60;;;17.50;99.90;;;;;;5101653;28;20470;-69
2021/05/10 07:08:15;;;;;;;4.37;2.40;;;17.50;99.90;;;;;;5116185;28;20560;-68
2021/05/10 07:10:44;;;;;;;3.00;2.73;;;17.40;99.90;;;;;;5099583;28;20545;-68
2021/05/10 07:13:10;;;;;;;2.87;2.60;;;17.70;99.90;;;;;;5117441;28;20876;-66
2021/05/10 07:15:35;;;;;;;3.50;3.00;;;17.80;99.90;;;;;;5120016;28;20418;-66
2021/05/10 07:18:06;;;;;;;2.70;2.47;;;18.10;99.90;;;;;;5114940;27;20260;-67
2021/05/10 07:20:33;;;;;;;3.63;2.60;;;18.10;99.90;;;;;;5100329;28;20201;-69
2021/05/10 07:22:59;;;;;;;3.70;2.90;;;18.30;99.90;;;;;;5119931;27;20821;-67
2021/05/10 07:25:26;;;;;;;2.80;2.50;;;18.30;99.90;;;;;;5132128;27;20429;-67
2021/05/10 07:27:51;;;;;;;5.57;2.80;;;18.30;99.90;;;;;;5120283;27;20460;-67
2021/05/10 07:30:17;;;;;;;2.60;2.40;;;18.40;99.90;;;;;;5120813;27;20459;-67
2021/05/10 07:32:43;;;;;;;2.87;2.63;;;18.50;99.90;;;;;;5119186;27;20211;-66
2021/05/10 07:35:09;;;;;;;3.50;2.50;;;18.80;99.90;;;;;;5119963;27;20410;-67
2021/05/10 07:37:35;;;;;;;2.80;2.43;;;18.80;99.90;;;;;;5120262;27;21024;-69
2021/05/10 07:40:00;;;;;;;3.20;2.90;;;18.90;99.90;;;;;;5101179;27;20442;-69
2021/05/10 07:42:26;;;;;;;3.33;2.70;;;18.80;99.90;;;;;;5098587;27;20188;-67
2021/05/10 07:44:52;;;;;;;3.10;2.60;;;19.20;99.90;;;;;;5117861;27;20204;-68
2021/05/10 07:47:18;;;;;;;3.80;2.97;;;19.60;99.90;;;;;;5113355;27;20191;-67
2021/05/10 07:49:44;;;;;;;5.00;3.10;;;19.60;99.90;;;;;;5115341;27;20209;-69
2021/05/10 07:52:10;;;;;;;5.07;3.40;;;19.50;99.90;;;;;;5121283;27;20475;-67
2021/05/10 07:54:36;;;;;;;4.83;3.07;;;19.50;99.90;;;;;;5121438;27;20240;-68
2021/05/10 07:57:01;;;;;;;5.53;3.20;;;19.30;99.90;;;;;;5118994;27;20959;-68
2021/05/10 07:59:27;;;;;;;4.73;3.13;;;19.40;99.90;;;;;;5117025;27;20638;-67
2021/05/10 08:01:55;;;;;;;3.30;3.00;;;19.30;99.90;;;;;;5121365;27;20192;-67
2021/05/10 08:04:21;;;;;;;6.03;3.10;;;19.40;99.90;;;;;;5119659;27;20237;-69
2021/05/10 08:06:47;;;;;;;4.70;3.50;;;19.60;99.90;;;;;;5122934;27;20422;-67
2021/05/10 08:09:12;;;;;;;3.37;2.90;;;20.00;99.80;;;;;;5114135;27;20218;-67
2021/05/10 08:11:41;;;;;;;6.97;2.90;;;20.20;99.90;;;;;;5121086;27;21000;-70
2021/05/10 08:14:07;;;;;;;5.20;4.40;;;19.80;99.30;;;;;;5096986;27;20269;-67
2021/05/10 08:16:32;;;;;;;3.90;3.10;;;19.90;99.90;;;;;;5120961;27;20434;-69
2021/05/10 08:18:58;;;;;;;3.30;3.10;;;20.00;99.70;;;;;;5114740;27;20206;-69
2021/05/10 08:21:23;;;;;;;4.27;3.53;;;19.90;99.90;;;;;;5117747;27;20191;-70
2021/05/10 08:23:49;;;;;;;5.73;3.20;;;20.00;99.60;;;;;;5118224;27;20260;-68
2021/05/10 08:26:15;;;;;;;5.17;3.23;;;20.00;99.60;;;;;;5117642;27;20964;-67
2021/05/10 08:28:40;;;;;;;2.97;2.77;;;20.40;98.90;;;;;;5095484;27;20218;-67
2021/05/10 08:31:06;;;;;;;4.53;2.63;;;20.30;99.00;;;;;;5116877;27;20218;-67
2021/05/10 08:33:31;;;;;;;5.43;3.10;;;20.30;98.90;;;;;;5118084;27;21204;-68
2021/05/10 08:35:57;;;;;;;3.50;3.20;;;20.70;99.90;;;;;;5111225;27;20179;-70
2021/05/10 08:38:23;;;;;;;3.27;2.90;;;20.90;98.20;;;;;;5112331;27;20737;-68
2021/05/10 08:40:53;;;;;;;3.67;3.37;;;20.80;97.90;;;;;;5114241;27;20179;-68
2021/05/10 08:43:21;;;;;;;4.87;2.93;;;20.80;98.00;;;;;;5116961;27;20458;-69
2021/05/10 08:45:53;;;;;;;7.07;4.33;;;21.30;98.10;;;;;;5100569;27;20415;-67
2021/05/10 08:48:19;;;;;;;3.40;3.10;;;21.20;97.00;;;;;;5114758;27;21015;-70
2021/05/10 08:50:45;;;;;;;4.17;3.23;;;21.30;97.00;;;;;;5118363;27;20479;-68
2021/05/10 08:53:12;;;;;;;3.83;3.37;;;21.10;96.40;;;;;;5120190;27;20446;-68
2021/05/10 08:55:39;;;;;;;7.50;3.70;;;21.20;96.90;;;;;;5124840;27;20231;-67
2021/05/10 08:58:07;;;;;;;4.03;3.27;;;21.40;97.50;;;;;;5115043;27;21612;-68
2021/05/10 09:00:33;;;;;;;6.90;3.87;;;21.90;95.80;;;;;;5098148;27;20435;-68
2021/05/10 09:03:10;;;;;;;7.20;3.90;;;22.20;96.10;;;;;;5100887;27;21004;-67
2021/05/10 09:05:49;;;;;;;3.33;2.93;;;21.90;94.90;;;;;;5121148;27;20430;-69
2021/05/10 09:08:16;;;;;;;5.43;3.63;;;21.60;95.20;;;;;;5115393;27;20556;-69
2021/05/10 09:11:12;;;;;;;4.33;3.43;;;21.80;95.40;;;;;;5118733;27;20586;-69
2021/05/10 09:13:41;;;;;;;5.13;4.20;;;22.00;94.60;;;;;;5118860;27;20662;-69
2021/05/10 09:16:07;;;;;;;7.70;3.37;;;22.10;94.50;;;;;;5118586;27;20920;-68
2021/05/10 09:18:33;;;;;;;6.70;5.67;;;22.40;94.20;;;;;;5095611;27;21244;-67
2021/05/10 09:21:28;;;;;;;5.70;3.80;;;22.50;93.80;;;;;;5118233;27;20423;-68
2021/05/10 09:23:55;;;;;;;4.03;3.63;;;22.60;94.20;;;;;;5119949;27;20909;-68
2021/05/10 09:26:28;;;;;;;4.83;3.30;;;22.70;92.50;;;;;;5119443;27;20905;-69
2021/05/10 09:28:54;;;;;;;5.20;4.43;;;22.60;92.20;;;;;;5113163;27;20451;-69
2021/05/10 09:31:19;;;;;;;9.20;4.33;;;22.70;91.80;;;;;;5118298;27;20489;-69
2021/05/10 09:33:46;;;;;;;3.50;3.20;;;22.80;92.50;;;;;;5120400;27;20204;-68
2021/05/10 09:36:36;;;;;;;7.83;7.07;;;23.00;92.90;;;;;;5120844;27;20466;-69
2021/05/10 09:39:26;;;;;;;3.20;2.90;;;22.70;94.20;;;;;;5112139;27;20463;-68
2021/05/10 09:42:03;;;;;;;4.03;3.23;;;23.00;92.70;;;;;;5119284;27;20971;-70
2021/05/10 09:44:42;;;;;;;5.33;3.47;;;23.50;92.70;;;;;;5117748;27;20491;-69
2021/05/10 09:47:08;;;;;;;3.03;2.70;;;23.70;92.10;;;;;;5115868;27;22120;-67
2021/05/10 09:49:49;;;;;;;3.47;3.20;;;23.80;90.80;;;;;;5114438;27;20474;-70
2021/05/10 09:52:23;;;;;;;5.70;2.83;;;24.00;90.30;;;;;;5118975;27;20469;-69
2021/05/10 09:55:00;;;;;;;3.33;2.60;;;24.20;90.20;;;;;;5119144;27;20505;-69
2021/05/10 09:57:27;;;;;;;4.03;2.90;;;24.10;89.80;;;;;;5115265;27;20436;-69
2021/05/10 10:00:20;;;;;;;5.40;3.40;;;24.10;87.70;;;;;;5114632;27;20436;-69
2021/05/10 10:02:46;;;;;;;5.20;3.73;;;23.70;84.70;;;;;;5100411;27;20453;-67
2021/05/10 10:05:12;;;;;;;3.90;3.50;;;23.60;86.10;;;;;;5099257;27;20416;-69
2021/05/10 10:07:42;;;;;;;6.70;3.30;;;23.80;88.10;;;;;;5116279;27;20201;-69
2021/05/10 10:10:09;;;;;;;4.03;3.00;;;23.90;87.90;;;;;;5118807;27;20504;-68
2021/05/10 10:12:35;;;;;;;3.53;3.00;;;24.30;87.70;;;;;;5118505;27;20580;-68
2021/05/10 10:15:00;;;;;;;5.33;2.70;;;24.30;89.50;;;;;;5098915;27;20444;-70
2021/05/10 10:17:26;;;;;;;3.30;3.00;;;24.60;87.20;;;;;;5112116;27;20275;-67
2021/05/10 10:19:57;;;;;;;3.63;2.70;;;25.00;84.10;;;;;;5113097;27;20190;-68
2021/05/10 10:22:23;;;;;;;4.40;3.00;;;25.00;85.50;;;;;;5110254;27;20430;-67
2021/05/10 10:24:50;;;;;;;5.50;2.90;;;25.00;84.10;;;;;;5098334;27;20427;-68
2021/05/10 10:27:16;;;;;;;3.47;2.67;;;25.20;85.40;;;;;;5110932;27;20445;-68
2021/05/10 10:29:44;;;;;;;6.37;3.50;;;24.90;86.20;;;;;;5114252;27;20474;-69
2021/05/10 10:32:16;;;;;;;3.60;3.27;;;25.20;84.10;;;;;;5116981;27;20479;-68
2021/05/10 10:34:45;;;;;;;3.83;2.93;;;24.70;83.80;;;;;;5119261;27;20515;-69
2021/05/10 10:37:13;;;;;;;3.70;3.40;;;24.80;86.00;;;;;;5113165;27;20424;-67
2021/05/10 10:39:49;;;;;;;3.87;3.20;;;25.10;84.70;;;;;;5112274;27;20426;-67
2021/05/10 10:42:25;;;;;;;6.60;2.97;;;25.30;83.40;;;;;;5118893;27;20541;-70
2021/05/10 10:44:55;;;;;;;3.57;3.20;;;24.90;81.60;;;;;;5120021;27;20432;-68
2021/05/10 10:47:47;;;;;;;3.27;2.97;;;25.00;83.50;;;;;;5099476;28;20446;-68
2021/05/10 10:50:18;;;;;;;4.13;3.43;;;25.20;87.20;;;;;;5109336;27;20458;-69
2021/05/10 10:52:56;;;;;;;3.50;3.20;;;25.20;83.10;;;;;;5115675;27;21024;-68
2021/05/10 10:55:30;;;;;;;3.17;2.87;;;25.60;82.10;;;;;;5117920;28;20426;-69
2021/05/10 10:58:22;;;;;;;3.67;3.37;;;25.30;82.10;;;;;;5113915;27;20457;-70
2021/05/10 11:01:02;;;;;;;4.80;2.90;;;25.30;80.90;;;;;;5122831;27;20437;-69
2021/05/10 11:03:29;;;;;;;3.57;3.17;;;25.00;79.40;;;;;;5123542;27;20447;-70
2021/05/10 11:05:55;;;;;;;3.50;3.20;;;25.20;80.60;;;;;;5103279;27;20550;-70
2021/05/10 11:08:48;;;;;;;3.67;3.37;;;24.80;81.50;;;;;;5117026;27;20451;-69
2021/05/10 11:11:37;;;;;;;4.10;2.70;;;25.30;81.50;;;;;;5093351;27;20516;-68
2021/05/10 11:14:04;;;;;;;5.90;3.37;;;25.60;82.20;;;;;;5123085;27;20450;-70
2021/05/10 11:16:53;;;;;;;4.83;3.40;;;25.60;78.50;;;;;;5115945;27;20430;-68
2021/05/10 11:19:45;;;;;;;3.20;2.93;;;25.60;80.00;;;;;;5116877;27;20861;-68
2021/05/10 11:22:37;;;;;;;3.43;2.63;;;25.50;77.70;;;;;;5099480;27;20430;-67
2021/05/10 11:25:35;;;;;;;3.40;3.10;;;25.50;74.40;;;;;;5120669;27;20438;-67
2021/05/10 11:28:33;;;;;;;4.73;3.20;;;26.00;75.50;;;;;;5117237;27;20546;-67
2021/05/10 11:31:01;;;;;;;4.10;3.20;;;26.20;74.00;;;;;;5118991;27;20562;-67
2021/05/10 11:33:52;;;;;;;3.33;3.03;;;26.20;74.60;;;;;;5117808;27;20555;-67
2021/05/10 11:36:22;;;;;;;3.50;3.20;;;25.90;73.60;;;;;;5099256;27;20449;-67
2021/05/10 11:39:04;;;;;;;5.43;3.70;;;26.30;72.60;;;;;;5115375;27;20438;-68
2021/05/10 11:41:41;;;;;;;8.40;4.27;;;26.30;74.10;;;;;;5116180;27;20459;-69
2021/05/10 11:44:09;;;;;;;3.70;3.17;;;26.50;74.40;;;;;;5096202;27;20551;-67
2021/05/10 11:46:44;;;;;;;4.87;3.90;;;26.00;74.10;;;;;;5118013;27;20543;-68
2021/05/10 11:49:21;;;;;;;6.33;4.03;;;25.90;72.00;;;;;;5113766;27;20458;-67
2021/05/10 11:51:47;;;;;;;7.57;3.80;;;26.20;73.60;;;;;;5115687;27;20466;-68
2021/05/10 11:54:13;;;;;;;4.50;4.10;;;26.30;72.80;;;;;;5100517;27;20499;-68
2021/05/10 11:56:42;;;;;;;5.50;3.03;;;26.70;74.30;;;;;;5119286;27;20720;-69
2021/05/10 11:59:41;;;;;;;6.10;3.67;;;26.90;72.70;;;;;;5114309;27;20576;-69
2021/05/10 12:02:10;;;;;;;7.03;3.77;;;26.80;73.80;;;;;;5099466;27;20469;-69
2021/05/10 12:04:37;;;;;;;6.93;4.80;;;27.10;72.00;;;;;;5098851;27;20874;-68
2021/05/10 12:07:04;;;;;;;5.27;4.77;;;26.90;69.30;;;;;;5115967;27;21158;-67
2021/05/10 12:09:45;;;;;;;7.30;5.13;;;26.80;70.00;;;;;;5112035;27;20434;-67
2021/05/10 12:12:13;;;;;;;8.60;5.47;;;26.60;69.40;;;;;;5116612;27;20470;-67
2021/05/10 12:14:47;;;;;;;8.63;5.23;;;26.60;70.30;;;;;;5119179;27;20435;-67
2021/05/10 12:17:16;;;;;;;5.43;4.93;;;27.10;70.60;;;;;;5100022;27;20442;-67
2021/05/10 12:19:55;;;;;;;6.03;4.60;;;27.80;70.10;;;;;;5116267;27;20430;-69
2021/05/10 12:22:28;;;;;;;6.27;4.47;;;27.70;71.40;;;;;;5117254;27;20423;-68
2021/05/10 12:25:03;;;;;;;7.57;5.10;;;26.90;70.40;;;;;;5115543;27;20450;-70
2021/05/10 12:27:43;;;;;;;5.70;5.20;;;26.80;70.20;;;;;;5117089;27;20549;-69
2021/05/10 12:30:21;;;;;;;8.03;6.00;;;27.00;72.30;;;;;;5117978;27;20985;-70
2021/05/10 12:32:50;;;;;;;6.03;3.57;;;27.10;71.00;;;;;;5118588;27;21199;-68
2021/05/10 12:35:19;;;;;;;5.33;4.33;;;27.40;69.10;;;;;;5114213;27;20419;-70
2021/05/10 12:37:48;;;;;;;7.67;4.10;;;27.50;68.20;;;;;;5109543;27;20464;-69
2021/05/10 12:40:17;;;;;;;8.40;4.97;;;27.50;63.80;;;;;;5115274;27;20506;-70
2021/05/10 12:42:43;;;;;;;5.73;5.23;;;27.40;63.80;;;;;;5119294;27;20467;-68
2021/05/10 12:45:12;;;;;;;8.67;6.03;;;28.00;66.10;;;;;;5118685;27;20878;-70
2021/05/10 12:47:42;;;;;;;10.97;6.17;;;28.00;66.60;;;;;;5114697;27;20893;-70
2021/05/10 12:50:30;;;;;;;11.17;4.70;;;27.70;67.60;;;;;;5116200;27;21010;-68
2021/05/10 12:52:56;;;;;;;6.83;5.57;;;28.20;67.90;;;;;;5099676;27;20471;-70
2021/05/10 12:55:22;;;;;;;10.33;5.53;;;28.50;67.60;;;;;;5098832;27;20438;-68
2021/05/10 12:57:49;;;;;;;6.00;5.40;;;28.10;65.60;;;;;;5113897;27;20802;-70
2021/05/10 13:00:39;;;;;;;8.13;5.80;;;28.10;66.70;;;;;;5116894;27;20806;-70
2021/05/10 13:03:06;;;;;;;8.93;5.63;;;27.80;66.70;;;;;;5120645;27;20806;-69